sensor_id;sensor_type;location;lat;lon;timestamp;pressure;altitude;pressure_sealevel;temperature;humidity
59409;BME280;45213;32.654;-115.458;2022-08-01T00:02:28;101003.41;;;39.02;21.90
59409;BME280;45213;32.654;-115.458;2022-08-01T00:04:54;101010.97;;;38.90;22.47
59409;BME280;45213;32.654;-115.458;2022-08-01T00:07:21;100992.13;;;38.89;22.72
59409;BME280;45213;32.654;-115.458;2022-08-01T00:09:48;101000.53;;;38.69;23.65
59409;BME280;45213;32.654;-115.458;2022-08-01T00:12:18;101004.31;;;38.76;23.51
59409;BME280;45213;32.654;-115.458;2022-08-01T00:14:44;101002.63;;;38.75;24.74
59409;BME280;45213;32.654;-115.458;2022-08-01T00:17:14;100986.25;;;38.59;24.69
59409;BME280;45213;32.654;-115.458;2022-08-01T00:19:43;100997.69;;;38.36;24.98
59409;BME280;45213;32.654;-115.458;2022-08-01T00:22:12;101007.16;;;38.32;26.35
59409;BME280;45213;32.654;-115.458;2022-08-01T00:24:39;101006.41;;;38.14;27.05
59409;BME280;45213;32.654;-115.458;2022-08-01T00:27:06;100996.28;;;37.80;28.19
59409;BME280;45213;32.654;-115.458;2022-08-01T00:29:33;100999.50;;;37.57;28.45
59409;BME280;45213;32.654;-115.458;2022-08-01T00:31:59;100977.53;;;37.69;28.02
59409;BME280;45213;32.654;-115.458;2022-08-01T00:34:28;100997.13;;;37.54;28.93
59409;BME280;45213;32.654;-115.458;2022-08-01T00:36:55;100996.47;;;37.60;28.05
59409;BME280;45213;32.654;-115.458;2022-08-01T00:39:22;100976.59;;;37.24;28.51
59409;BME280;45213;32.654;-115.458;2022-08-01T00:41:48;100995.13;;;37.47;27.97
59409;BME280;45213;32.654;-115.458;2022-08-01T00:44:15;100993.44;;;37.46;27.18
59409;BME280;45213;32.654;-115.458;2022-08-01T00:46:42;100989.00;;;37.27;26.82
59409;BME280;45213;32.654;-115.458;2022-08-01T00:49:13;100983.28;;;37.30;26.24
59409;BME280;45213;32.654;-115.458;2022-08-01T00:51:39;100986.38;;;37.35;25.66
59409;BME280;45213;32.654;-115.458;2022-08-01T00:54:07;100981.56;;;37.29;23.43
59409;BME280;45213;32.654;-115.458;2022-08-01T00:56:33;100983.81;;;37.33;21.75
59409;BME280;45213;32.654;-115.458;2022-08-01T00:59:00;100975.41;;;37.45;21.64
59409;BME280;45213;32.654;-115.458;2022-08-01T01:01:29;100973.88;;;37.42;21.54
59409;BME280;45213;32.654;-115.458;2022-08-01T01:03:56;100963.03;;;37.24;21.00
59409;BME280;45213;32.654;-115.458;2022-08-01T01:12:35;100967.19;;;37.00;22.63
59409;BME280;45213;32.654;-115.458;2022-08-01T01:15:22;100974.72;;;37.07;22.90
59409;BME280;45213;32.654;-115.458;2022-08-01T01:18:25;100970.31;;;37.24;22.34
59409;BME280;45213;32.654;-115.458;2022-08-01T01:21:03;100979.41;;;37.14;20.07
59409;BME280;45213;32.654;-115.458;2022-08-01T01:23:47;100980.94;;;37.17;21.00
59409;BME280;45213;32.654;-115.458;2022-08-01T01:29:30;100969.81;;;36.92;20.94
59409;BME280;45213;32.654;-115.458;2022-08-01T01:34:35;101003.69;;;37.34;20.95
59409;BME280;45213;32.654;-115.458;2022-08-01T01:37:05;101001.34;;;37.21;20.20
59409;BME280;45213;32.654;-115.458;2022-08-01T01:39:35;101008.91;;;36.99;20.71
59409;BME280;45213;32.654;-115.458;2022-08-01T01:42:04;100990.69;;;36.92;21.98
59409;BME280;45213;32.654;-115.458;2022-08-01T01:44:32;101007.66;;;36.94;22.32
59409;BME280;45213;32.654;-115.458;2022-08-01T01:47:03;101014.50;;;36.98;22.65
59409;BME280;45213;32.654;-115.458;2022-08-01T01:49:32;101015.00;;;36.84;22.92
59409;BME280;45213;32.654;-115.458;2022-08-01T01:52:00;101007.50;;;36.77;23.35
59409;BME280;45213;32.654;-115.458;2022-08-01T01:54:33;101021.34;;;36.74;23.96
59409;BME280;45213;32.654;-115.458;2022-08-01T01:57:03;101016.00;;;36.55;24.86
59409;BME280;45213;32.654;-115.458;2022-08-01T01:59:34;101011.50;;;36.36;25.41
59409;BME280;45213;32.654;-115.458;2022-08-01T02:02:04;101036.59;;;36.48;25.44
59409;BME280;45213;32.654;-115.458;2022-08-01T02:04:35;101008.38;;;36.41;24.44
59409;BME280;45213;32.654;-115.458;2022-08-01T02:07:06;101025.03;;;36.46;23.78
59409;BME280;45213;32.654;-115.458;2022-08-01T02:09:37;101044.03;;;36.36;24.40
59409;BME280;45213;32.654;-115.458;2022-08-01T02:12:09;101017.25;;;36.23;24.58
59409;BME280;45213;32.654;-115.458;2022-08-01T02:14:37;101031.84;;;36.12;24.51
59409;BME280;45213;32.654;-115.458;2022-08-01T02:17:11;101038.25;;;36.21;25.10
59409;BME280;45213;32.654;-115.458;2022-08-01T02:19:40;101053.94;;;36.08;25.72
59409;BME280;45213;32.654;-115.458;2022-08-01T02:22:14;101050.09;;;36.01;26.16
59409;BME280;45213;32.654;-115.458;2022-08-01T02:27:52;101052.66;;;35.92;27.25
59409;BME280;45213;32.654;-115.458;2022-08-01T02:30:21;101058.81;;;35.85;28.87
59409;BME280;45213;32.654;-115.458;2022-08-01T02:33:00;101060.13;;;35.71;29.68
59409;BME280;45213;32.654;-115.458;2022-08-01T02:35:33;101059.81;;;35.74;29.81
59409;BME280;45213;32.654;-115.458;2022-08-01T02:38:03;101045.69;;;35.61;29.98
59409;BME280;45213;32.654;-115.458;2022-08-01T02:40:32;101059.22;;;35.61;30.12
59409;BME280;45213;32.654;-115.458;2022-08-01T02:43:02;101058.09;;;35.44;29.06
59409;BME280;45213;32.654;-115.458;2022-08-01T02:45:30;101076.03;;;35.45;29.03
59409;BME280;45213;32.654;-115.458;2022-08-01T02:48:06;101075.59;;;35.40;28.19
59409;BME280;45213;32.654;-115.458;2022-08-01T02:50:39;101089.13;;;35.30;27.93
59409;BME280;45213;32.654;-115.458;2022-08-01T02:53:08;101088.13;;;35.21;28.00
59409;BME280;45213;32.654;-115.458;2022-08-01T02:55:38;101085.31;;;35.02;29.28
59409;BME280;45213;32.654;-115.458;2022-08-01T02:58:07;101088.59;;;34.96;30.40
59409;BME280;45213;32.654;-115.458;2022-08-01T03:00:39;101095.41;;;34.90;30.87
59409;BME280;45213;32.654;-115.458;2022-08-01T03:03:08;101079.69;;;34.84;31.75
59409;BME280;45213;32.654;-115.458;2022-08-01T03:05:43;101097.75;;;34.73;32.83
59409;BME280;45213;32.654;-115.458;2022-08-01T03:08:11;101098.03;;;34.49;34.25
59409;BME280;45213;32.654;-115.458;2022-08-01T03:10:44;101096.72;;;34.44;34.19
59409;BME280;45213;32.654;-115.458;2022-08-01T03:13:13;101100.41;;;34.43;34.93
59409;BME280;45213;32.654;-115.458;2022-08-01T03:15:42;101093.91;;;34.24;35.47
59409;BME280;45213;32.654;-115.458;2022-08-01T03:18:10;101112.41;;;34.29;35.16
59409;BME280;45213;32.654;-115.458;2022-08-01T03:20:38;101118.38;;;34.23;35.66
59409;BME280;45213;32.654;-115.458;2022-08-01T03:23:06;101119.34;;;34.22;35.61
59409;BME280;45213;32.654;-115.458;2022-08-01T03:25:38;101130.81;;;34.14;35.23
59409;BME280;45213;32.654;-115.458;2022-08-01T03:28:07;101134.38;;;34.15;35.03
59409;BME280;45213;32.654;-115.458;2022-08-01T03:30:35;101131.78;;;34.13;34.66
59409;BME280;45213;32.654;-115.458;2022-08-01T03:33:03;101125.03;;;34.19;34.45
59409;BME280;45213;32.654;-115.458;2022-08-01T03:35:37;101132.91;;;34.10;33.92
59409;BME280;45213;32.654;-115.458;2022-08-01T03:38:08;101127.75;;;34.07;33.66
59409;BME280;45213;32.654;-115.458;2022-08-01T03:40:59;101143.72;;;34.10;33.89
59409;BME280;45213;32.654;-115.458;2022-08-01T03:43:56;101148.75;;;34.04;33.34
59409;BME280;45213;32.654;-115.458;2022-08-01T03:46:32;101131.47;;;33.95;33.47
59409;BME280;45213;32.654;-115.458;2022-08-01T03:49:07;101146.09;;;33.93;33.86
59409;BME280;45213;32.654;-115.458;2022-08-01T03:51:37;101152.97;;;33.97;34.06
59409;BME280;45213;32.654;-115.458;2022-08-01T03:54:05;101164.03;;;33.94;34.38
59409;BME280;45213;32.654;-115.458;2022-08-01T03:56:34;101156.59;;;33.75;34.83
59409;BME280;45213;32.654;-115.458;2022-08-01T03:59:03;101178.72;;;33.80;35.22
59409;BME280;45213;32.654;-115.458;2022-08-01T04:01:32;101184.50;;;33.75;35.31
59409;BME280;45213;32.654;-115.458;2022-08-01T04:03:59;101182.78;;;33.63;35.46
59409;BME280;45213;32.654;-115.458;2022-08-01T04:06:28;101194.78;;;33.70;35.48
59409;BME280;45213;32.654;-115.458;2022-08-01T04:08:55;101194.44;;;33.63;36.09
59409;BME280;45213;32.654;-115.458;2022-08-01T04:11:25;101204.53;;;33.61;36.56
59409;BME280;45213;32.654;-115.458;2022-08-01T04:13:54;101203.16;;;33.56;36.29
59409;BME280;45213;32.654;-115.458;2022-08-01T04:16:21;101205.38;;;33.51;36.66
59409;BME280;45213;32.654;-115.458;2022-08-01T04:18:48;101199.34;;;33.47;37.14
59409;BME280;45213;32.654;-115.458;2022-08-01T04:21:18;101205.88;;;33.44;36.76
59409;BME280;45213;32.654;-115.458;2022-08-01T04:23:49;101212.72;;;33.48;36.79
59409;BME280;45213;32.654;-115.458;2022-08-01T04:26:19;101201.69;;;33.40;36.51
59409;BME280;45213;32.654;-115.458;2022-08-01T04:28:48;101197.78;;;33.33;36.68
59409;BME280;45213;32.654;-115.458;2022-08-01T04:31:18;101217.88;;;33.40;36.25
59409;BME280;45213;32.654;-115.458;2022-08-01T04:33:50;101223.28;;;33.29;36.60
59409;BME280;45213;32.654;-115.458;2022-08-01T04:36:19;101214.22;;;33.30;36.75
59409;BME280;45213;32.654;-115.458;2022-08-01T04:38:52;101215.34;;;33.27;36.85
59409;BME280;45213;32.654;-115.458;2022-08-01T04:41:19;101218.16;;;33.26;37.02
59409;BME280;45213;32.654;-115.458;2022-08-01T04:43:50;101225.63;;;33.22;37.13
59409;BME280;45213;32.654;-115.458;2022-08-01T04:49:21;101219.38;;;33.11;38.19
59409;BME280;45213;32.654;-115.458;2022-08-01T04:51:55;101220.47;;;33.08;38.18
59409;BME280;45213;32.654;-115.458;2022-08-01T04:54:27;101224.91;;;33.09;38.38
59409;BME280;45213;32.654;-115.458;2022-08-01T04:56:55;101223.50;;;33.03;38.25
59409;BME280;45213;32.654;-115.458;2022-08-01T04:59:26;101216.13;;;32.94;38.75
59409;BME280;45213;32.654;-115.458;2022-08-01T05:02:11;101218.34;;;32.89;39.32
59409;BME280;45213;32.654;-115.458;2022-08-01T05:04:39;101225.94;;;32.84;39.54
59409;BME280;45213;32.654;-115.458;2022-08-01T05:07:06;101220.66;;;32.82;40.15
59409;BME280;45213;32.654;-115.458;2022-08-01T05:09:33;101216.38;;;32.80;40.94
59409;BME280;45213;32.654;-115.458;2022-08-01T05:12:00;101209.38;;;32.66;41.33
59409;BME280;45213;32.654;-115.458;2022-08-01T05:14:29;101225.56;;;32.77;42.08
59409;BME280;45213;32.654;-115.458;2022-08-01T05:16:59;101228.09;;;32.67;42.61
59409;BME280;45213;32.654;-115.458;2022-08-01T05:19:26;101226.03;;;32.47;43.42
59409;BME280;45213;32.654;-115.458;2022-08-01T05:21:53;101235.22;;;32.44;44.14
59409;BME280;45213;32.654;-115.458;2022-08-01T05:24:19;101235.34;;;32.43;44.08
59409;BME280;45213;32.654;-115.458;2022-08-01T05:26:46;101234.69;;;32.52;43.55
59409;BME280;45213;32.654;-115.458;2022-08-01T05:29:12;101234.63;;;32.41;44.29
59409;BME280;45213;32.654;-115.458;2022-08-01T05:31:39;101228.34;;;32.40;44.27
59409;BME280;45213;32.654;-115.458;2022-08-01T05:34:09;101220.25;;;32.40;44.86
59409;BME280;45213;32.654;-115.458;2022-08-01T05:36:36;101210.44;;;32.28;45.29
59409;BME280;45213;32.654;-115.458;2022-08-01T05:39:04;101220.84;;;32.33;45.20
59409;BME280;45213;32.654;-115.458;2022-08-01T05:41:31;101218.16;;;32.33;45.57
59409;BME280;45213;32.654;-115.458;2022-08-01T05:43:57;101221.06;;;32.18;45.89
59409;BME280;45213;32.654;-115.458;2022-08-01T05:46:24;101234.38;;;32.20;45.73
59409;BME280;45213;32.654;-115.458;2022-08-01T05:48:51;101235.03;;;32.23;45.70
59409;BME280;45213;32.654;-115.458;2022-08-01T05:51:20;101242.38;;;32.21;45.91
59409;BME280;45213;32.654;-115.458;2022-08-01T05:53:47;101236.00;;;32.22;46.06
59409;BME280;45213;32.654;-115.458;2022-08-01T05:56:14;101243.34;;;32.20;46.92
59409;BME280;45213;32.654;-115.458;2022-08-01T05:58:40;101248.84;;;32.19;46.94
59409;BME280;45213;32.654;-115.458;2022-08-01T06:01:07;101240.31;;;32.01;47.20
59409;BME280;45213;32.654;-115.458;2022-08-01T06:03:34;101257.22;;;32.03;47.24
59409;BME280;45213;32.654;-115.458;2022-08-01T06:06:01;101260.66;;;31.92;48.46
59409;BME280;45213;32.654;-115.458;2022-08-01T06:08:28;101267.25;;;31.88;48.86
59409;BME280;45213;32.654;-115.458;2022-08-01T06:10:55;101270.91;;;31.87;49.35
59409;BME280;45213;32.654;-115.458;2022-08-01T06:13:24;101274.72;;;31.72;50.31
59409;BME280;45213;32.654;-115.458;2022-08-01T06:15:51;101268.59;;;31.70;50.44
59409;BME280;45213;32.654;-115.458;2022-08-01T06:18:19;101244.59;;;31.67;51.13
59409;BME280;45213;32.654;-115.458;2022-08-01T06:20:46;101264.19;;;31.69;51.88
59409;BME280;45213;32.654;-115.458;2022-08-01T06:23:13;101242.78;;;31.54;52.53
59409;BME280;45213;32.654;-115.458;2022-08-01T06:25:42;101253.97;;;31.61;52.86
59409;BME280;45213;32.654;-115.458;2022-08-01T06:28:09;101255.91;;;31.59;52.35
59409;BME280;45213;32.654;-115.458;2022-08-01T06:30:36;101267.75;;;31.56;52.24
59409;BME280;45213;32.654;-115.458;2022-08-01T06:33:06;101264.94;;;31.58;52.49
59409;BME280;45213;32.654;-115.458;2022-08-01T06:35:33;101254.22;;;31.32;52.77
59409;BME280;45213;32.654;-115.458;2022-08-01T06:37:59;101254.34;;;31.44;52.63
59409;BME280;45213;32.654;-115.458;2022-08-01T06:40:26;101265.38;;;31.52;52.70
59409;BME280;45213;32.654;-115.458;2022-08-01T06:42:53;101264.09;;;31.45;53.01
59409;BME280;45213;32.654;-115.458;2022-08-01T06:45:19;101273.16;;;31.44;52.85
59409;BME280;45213;32.654;-115.458;2022-08-01T06:47:48;101277.34;;;31.35;53.18
59409;BME280;45213;32.654;-115.458;2022-08-01T06:50:15;101277.66;;;31.30;53.13
59409;BME280;45213;32.654;-115.458;2022-08-01T06:52:42;101255.94;;;31.20;53.07
59409;BME280;45213;32.654;-115.458;2022-08-01T06:55:09;101274.53;;;31.24;53.68
59409;BME280;45213;32.654;-115.458;2022-08-01T06:57:36;101271.00;;;31.10;53.81
59409;BME280;45213;32.654;-115.458;2022-08-01T07:00:05;101273.13;;;31.18;53.85
59409;BME280;45213;32.654;-115.458;2022-08-01T07:02:37;101277.97;;;31.13;54.52
59409;BME280;45213;32.654;-115.458;2022-08-01T07:05:04;101281.66;;;31.12;54.72
59409;BME280;45213;32.654;-115.458;2022-08-01T07:07:31;101282.41;;;31.14;54.62
59409;BME280;45213;32.654;-115.458;2022-08-01T07:10:00;101277.66;;;31.05;55.03
59409;BME280;45213;32.654;-115.458;2022-08-01T07:12:27;101280.69;;;31.00;55.39
59409;BME280;45213;32.654;-115.458;2022-08-01T07:14:53;101281.72;;;30.97;55.65
59409;BME280;45213;32.654;-115.458;2022-08-01T07:17:20;101281.53;;;31.00;55.44
59409;BME280;45213;32.654;-115.458;2022-08-01T07:19:47;101278.94;;;30.99;55.43
59409;BME280;45213;32.654;-115.458;2022-08-01T07:22:14;101286.06;;;31.00;55.48
59409;BME280;45213;32.654;-115.458;2022-08-01T07:24:42;101290.56;;;30.99;55.69
59409;BME280;45213;32.654;-115.458;2022-08-01T07:27:09;101283.47;;;30.98;56.09
59409;BME280;45213;32.654;-115.458;2022-08-01T07:29:36;101278.72;;;30.89;56.46
59409;BME280;45213;32.654;-115.458;2022-08-01T07:32:03;101294.63;;;30.92;56.70
59409;BME280;45213;32.654;-115.458;2022-08-01T07:34:30;101290.34;;;30.90;57.25
59409;BME280;45213;32.654;-115.458;2022-08-01T07:36:56;101293.34;;;30.85;57.45
59409;BME280;45213;32.654;-115.458;2022-08-01T07:39:23;101287.28;;;30.81;57.54
59409;BME280;45213;32.654;-115.458;2022-08-01T07:41:50;101276.84;;;30.77;57.75
59409;BME280;45213;32.654;-115.458;2022-08-01T07:44:16;101291.03;;;30.79;58.31
59409;BME280;45213;32.654;-115.458;2022-08-01T07:46:43;101297.78;;;30.72;58.68
59409;BME280;45213;32.654;-115.458;2022-08-01T07:49:09;101294.78;;;30.64;59.28
59409;BME280;45213;32.654;-115.458;2022-08-01T07:51:36;101283.13;;;30.50;59.70
59409;BME280;45213;32.654;-115.458;2022-08-01T07:54:04;101274.50;;;30.45;59.83
59409;BME280;45213;32.654;-115.458;2022-08-01T07:56:31;101290.63;;;30.45;60.45
59409;BME280;45213;32.654;-115.458;2022-08-01T07:58:57;101285.47;;;30.42;60.72
59409;BME280;45213;32.654;-115.458;2022-08-01T08:01:24;101283.28;;;30.34;61.17
59409;BME280;45213;32.654;-115.458;2022-08-01T08:03:50;101277.50;;;30.41;60.91
59409;BME280;45213;32.654;-115.458;2022-08-01T08:06:17;101291.44;;;30.33;61.62
59409;BME280;45213;32.654;-115.458;2022-08-01T08:08:44;101288.00;;;30.31;61.95
59409;BME280;45213;32.654;-115.458;2022-08-01T08:11:10;101279.66;;;30.21;62.09
59409;BME280;45213;32.654;-115.458;2022-08-01T08:13:37;101292.59;;;30.29;62.59
59409;BME280;45213;32.654;-115.458;2022-08-01T08:16:04;101277.63;;;30.25;62.52
59409;BME280;45213;32.654;-115.458;2022-08-01T08:18:30;101286.66;;;30.24;62.76
59409;BME280;45213;32.654;-115.458;2022-08-01T08:20:57;101284.34;;;30.17;62.69
59409;BME280;45213;32.654;-115.458;2022-08-01T08:23:24;101278.22;;;30.15;62.87
59409;BME280;45213;32.654;-115.458;2022-08-01T08:26:12;101277.16;;;30.18;63.02
59409;BME280;45213;32.654;-115.458;2022-08-01T08:28:39;101280.16;;;30.13;62.95
59409;BME280;45213;32.654;-115.458;2022-08-01T08:31:06;101269.25;;;30.02;63.17
59409;BME280;45213;32.654;-115.458;2022-08-01T08:33:32;101274.44;;;30.05;63.24
59409;BME280;45213;32.654;-115.458;2022-08-01T08:35:59;101279.03;;;30.03;63.78
59409;BME280;45213;32.654;-115.458;2022-08-01T08:38:26;101279.25;;;30.00;63.95
59409;BME280;45213;32.654;-115.458;2022-08-01T08:40:53;101271.06;;;30.02;64.22
59409;BME280;45213;32.654;-115.458;2022-08-01T08:43:20;101282.13;;;29.97;64.11
59409;BME280;45213;32.654;-115.458;2022-08-01T08:45:48;101291.16;;;29.96;64.24
59409;BME280;45213;32.654;-115.458;2022-08-01T08:48:15;101285.94;;;29.93;65.11
59409;BME280;45213;32.654;-115.458;2022-08-01T08:50:43;101273.13;;;29.84;65.29
59409;BME280;45213;32.654;-115.458;2022-08-01T08:53:13;101273.88;;;29.86;65.98
59409;BME280;45213;32.654;-115.458;2022-08-01T08:55:44;101275.94;;;29.82;66.58
59409;BME280;45213;32.654;-115.458;2022-08-01T08:58:12;101279.09;;;29.74;67.23
59409;BME280;45213;32.654;-115.458;2022-08-01T09:00:40;101262.34;;;29.71;67.23
59409;BME280;45213;32.654;-115.458;2022-08-01T09:03:07;101277.00;;;29.80;67.52
59409;BME280;45213;32.654;-115.458;2022-08-01T09:05:34;101268.56;;;29.71;67.87
59409;BME280;45213;32.654;-115.458;2022-08-01T09:08:01;101265.09;;;29.69;68.29
59409;BME280;45213;32.654;-115.458;2022-08-01T09:10:27;101261.72;;;29.66;68.88
59409;BME280;45213;32.654;-115.458;2022-08-01T09:13:09;101268.75;;;29.68;68.53
59409;BME280;45213;32.654;-115.458;2022-08-01T09:15:49;101256.75;;;29.60;69.23
59409;BME280;45213;32.654;-115.458;2022-08-01T09:18:31;101274.28;;;29.65;69.20
59409;BME280;45213;32.654;-115.458;2022-08-01T09:21:19;101270.34;;;29.56;70.10
59409;BME280;45213;32.654;-115.458;2022-08-01T09:23:50;101264.22;;;29.54;70.01
59409;BME280;45213;32.654;-115.458;2022-08-01T09:26:20;101257.81;;;29.57;69.90
59409;BME280;45213;32.654;-115.458;2022-08-01T09:28:47;101253.78;;;29.50;70.38
59409;BME280;45213;32.654;-115.458;2022-08-01T09:31:17;101264.34;;;29.53;70.29
59409;BME280;45213;32.654;-115.458;2022-08-01T09:36:24;101262.59;;;29.52;70.54
59409;BME280;45213;32.654;-115.458;2022-08-01T09:38:52;101239.22;;;29.40;70.86
59409;BME280;45213;32.654;-115.458;2022-08-01T09:41:29;101255.03;;;29.44;71.01
59409;BME280;45213;32.654;-115.458;2022-08-01T09:43:57;101257.44;;;29.49;71.25
59409;BME280;45213;32.654;-115.458;2022-08-01T09:46:25;101269.13;;;29.48;71.12
59409;BME280;45213;32.654;-115.458;2022-08-01T09:48:59;101274.94;;;29.54;71.17
59409;BME280;45213;32.654;-115.458;2022-08-01T09:54:01;101261.34;;;29.43;71.75
59409;BME280;45213;32.654;-115.458;2022-08-01T09:57:06;101262.03;;;29.47;71.48
59409;BME280;45213;32.654;-115.458;2022-08-01T09:59:38;101262.31;;;29.42;71.92
59409;BME280;45213;32.654;-115.458;2022-08-01T10:02:30;101266.34;;;29.49;71.38
59409;BME280;45213;32.654;-115.458;2022-08-01T10:04:59;101254.84;;;29.47;71.41
59409;BME280;45213;32.654;-115.458;2022-08-01T10:07:26;101273.72;;;29.46;71.86
59409;BME280;45213;32.654;-115.458;2022-08-01T10:09:53;101281.38;;;29.38;72.53
59409;BME280;45213;32.654;-115.458;2022-08-01T10:12:22;101275.53;;;29.31;72.89
59409;BME280;45213;32.654;-115.458;2022-08-01T10:14:52;101280.03;;;29.30;73.25
59409;BME280;45213;32.654;-115.458;2022-08-01T10:17:24;101282.53;;;29.33;73.04
59409;BME280;45213;32.654;-115.458;2022-08-01T10:19:52;101279.84;;;29.33;73.14
59409;BME280;45213;32.654;-115.458;2022-08-01T10:22:23;101287.22;;;29.30;73.55
59409;BME280;45213;32.654;-115.458;2022-08-01T10:24:55;101282.72;;;29.30;73.01
59409;BME280;45213;32.654;-115.458;2022-08-01T10:27:25;101290.94;;;29.27;73.28
59409;BME280;45213;32.654;-115.458;2022-08-01T10:29:59;101292.69;;;29.28;73.38
59409;BME280;45213;32.654;-115.458;2022-08-01T10:32:35;101287.31;;;29.28;73.64
59409;BME280;45213;32.654;-115.458;2022-08-01T10:35:04;101288.75;;;29.34;73.30
59409;BME280;45213;32.654;-115.458;2022-08-01T10:37:34;101281.66;;;29.33;73.02
59409;BME280;45213;32.654;-115.458;2022-08-01T10:40:02;101296.78;;;29.34;73.45
59409;BME280;45213;32.654;-115.458;2022-08-01T10:42:29;101282.31;;;29.22;74.05
59409;BME280;45213;32.654;-115.458;2022-08-01T10:44:56;101285.28;;;29.18;74.49
59409;BME280;45213;32.654;-115.458;2022-08-01T10:47:40;101278.31;;;29.15;74.51
59409;BME280;45213;32.654;-115.458;2022-08-01T10:50:32;101283.66;;;29.15;74.56
59409;BME280;45213;32.654;-115.458;2022-08-01T10:53:18;101281.94;;;29.14;74.59
59409;BME280;45213;32.654;-115.458;2022-08-01T11:04:10;101286.06;;;29.20;74.66
59409;BME280;45213;32.654;-115.458;2022-08-01T11:07:02;101293.91;;;29.08;75.05
59409;BME280;45213;32.654;-115.458;2022-08-01T11:09:30;101285.16;;;29.05;75.41
59409;BME280;45213;32.654;-115.458;2022-08-01T11:14:26;101274.81;;;28.99;75.52
59409;BME280;45213;32.654;-115.458;2022-08-01T11:16:53;101275.84;;;28.96;75.91
59409;BME280;45213;32.654;-115.458;2022-08-01T11:19:19;101263.78;;;28.89;75.63
59409;BME280;45213;32.654;-115.458;2022-08-01T11:27:18;101273.81;;;28.85;75.98
59409;BME280;45213;32.654;-115.458;2022-08-01T11:32:54;101305.97;;;28.85;75.80
59409;BME280;45213;32.654;-115.458;2022-08-01T11:35:24;101292.00;;;28.80;76.10
59409;BME280;45213;32.654;-115.458;2022-08-01T11:37:55;101297.09;;;28.85;75.77
59409;BME280;45213;32.654;-115.458;2022-08-01T11:40:27;101286.81;;;28.77;75.68
59409;BME280;45213;32.654;-115.458;2022-08-01T11:43:15;101282.50;;;28.74;75.69
59409;BME280;45213;32.654;-115.458;2022-08-01T11:45:54;101296.31;;;28.83;75.58
59409;BME280;45213;32.654;-115.458;2022-08-01T11:48:26;101304.44;;;28.81;75.97
59409;BME280;45213;32.654;-115.458;2022-08-01T11:50:55;101294.25;;;28.72;76.25
59409;BME280;45213;32.654;-115.458;2022-08-01T11:53:22;101314.38;;;28.79;76.41
59409;BME280;45213;32.654;-115.458;2022-08-01T11:55:51;101308.06;;;28.80;76.34
59409;BME280;45213;32.654;-115.458;2022-08-01T11:58:25;101303.06;;;28.74;76.77
59409;BME280;45213;32.654;-115.458;2022-08-01T12:00:53;101310.59;;;28.67;76.88
59409;BME280;45213;32.654;-115.458;2022-08-01T12:03:26;101314.84;;;28.71;77.12
59409;BME280;45213;32.654;-115.458;2022-08-01T12:05:56;101328.31;;;28.70;77.09
59409;BME280;45213;32.654;-115.458;2022-08-01T12:08:28;101315.13;;;28.67;77.74
59409;BME280;45213;32.654;-115.458;2022-08-01T12:10:55;101321.53;;;28.64;77.51
59409;BME280;45213;32.654;-115.458;2022-08-01T12:13:22;101315.31;;;28.64;78.00
59409;BME280;45213;32.654;-115.458;2022-08-01T12:15:49;101310.09;;;28.61;78.19
59409;BME280;45213;32.654;-115.458;2022-08-01T12:18:19;101312.78;;;28.61;78.36
59409;BME280;45213;32.654;-115.458;2022-08-01T12:20:46;101323.50;;;28.61;78.21
59409;BME280;45213;32.654;-115.458;2022-08-01T12:23:15;101321.00;;;28.58;79.12
59409;BME280;45213;32.654;-115.458;2022-08-01T12:25:50;101311.59;;;28.50;78.86
59409;BME280;45213;32.654;-115.458;2022-08-01T12:28:17;101322.06;;;28.55;79.08
59409;BME280;45213;32.654;-115.458;2022-08-01T12:30:50;101318.88;;;28.48;79.71
59409;BME280;45213;32.654;-115.458;2022-08-01T12:33:18;101330.25;;;28.52;80.03
59409;BME280;45213;32.654;-115.458;2022-08-01T12:35:45;101329.13;;;28.56;79.68
59409;BME280;45213;32.654;-115.458;2022-08-01T12:38:19;101331.53;;;28.61;79.29
59409;BME280;45213;32.654;-115.458;2022-08-01T12:40:48;101338.78;;;28.59;80.33
59409;BME280;45213;32.654;-115.458;2022-08-01T12:43:19;101325.16;;;28.47;80.61
59409;BME280;45213;32.654;-115.458;2022-08-01T12:45:49;101342.88;;;28.50;80.90
59409;BME280;45213;32.654;-115.458;2022-08-01T12:48:17;101349.97;;;28.51;81.09
59409;BME280;45213;32.654;-115.458;2022-08-01T12:50:47;101348.06;;;28.53;81.21
59409;BME280;45213;32.654;-115.458;2022-08-01T12:53:14;101334.56;;;28.55;80.72
59409;BME280;45213;32.654;-115.458;2022-08-01T12:55:50;101337.50;;;28.50;81.05
59409;BME280;45213;32.654;-115.458;2022-08-01T12:58:18;101351.59;;;28.53;81.25
59409;BME280;45213;32.654;-115.458;2022-08-01T13:00:47;101336.66;;;28.49;81.06
59409;BME280;45213;32.654;-115.458;2022-08-01T13:03:19;101349.63;;;28.57;81.10
59409;BME280;45213;32.654;-115.458;2022-08-01T13:05:53;101354.00;;;28.58;81.19
59409;BME280;45213;32.654;-115.458;2022-08-01T13:08:39;101359.38;;;28.58;81.04
59409;BME280;45213;32.654;-115.458;2022-08-01T13:11:10;101353.94;;;28.60;81.02
59409;BME280;45213;32.654;-115.458;2022-08-01T13:13:41;101357.41;;;28.62;80.93
59409;BME280;45213;32.654;-115.458;2022-08-01T13:16:11;101352.91;;;28.62;80.84
59409;BME280;45213;32.654;-115.458;2022-08-01T13:18:39;101345.47;;;28.51;81.34